Time;durP1;ratioP1;P1;durP2;ratioP2;P2;SDS_P1;SDS_P2;PMS_P1;PMS_P2;Temp;Humidity;BMP_temperature;BMP_pressure;BME280_temperature;BME280_humidity;BME280_pressure;Samples;Min_cycle;Max_cycle;Signal;HPM_P1;HPM_P2
2021/06/22 00:01:34;;;;;;;3.35;2.00;;;18.00;38.90;;;;;;6180139;23;20021;-67
2021/06/22 00:04:23;;;;;;;4.78;1.90;;;18.00;38.80;;;;;;6172664;23;20100;-66
2021/06/22 00:07:14;;;;;;;4.90;1.88;;;18.10;36.90;;;;;;6175541;23;20031;-65
2021/06/22 00:10:03;;;;;;;5.65;1.58;;;18.10;34.10;;;;;;6177426;23;20403;-66
2021/06/22 00:12:53;;;;;;;4.60;1.70;;;18.10;34.30;;;;;;6175752;23;20120;-65
2021/06/22 00:15:42;;;;;;;3.55;1.70;;;17.90;35.50;;;;;;6179183;23;20029;-66
2021/06/22 00:18:30;;;;;;;5.25;1.58;;;17.90;35.20;;;;;;6174891;23;20483;-66
2021/06/22 00:21:19;;;;;;;1.92;1.50;;;17.80;34.10;;;;;;6176659;23;20164;-65
2021/06/22 00:24:08;;;;;;;3.30;1.90;;;17.70;34.00;;;;;;6173112;23;20041;-66
2021/06/22 00:26:57;;;;;;;4.07;1.50;;;17.70;35.30;;;;;;6174754;23;20344;-64
2021/06/22 00:29:49;;;;;;;1.65;1.55;;;17.60;37.50;;;;;;6177349;23;20354;-66
2021/06/22 00:32:39;;;;;;;2.55;1.77;;;17.80;37.40;;;;;;6177090;23;20031;-67
2021/06/22 00:35:27;;;;;;;2.55;1.50;;;17.80;37.50;;;;;;6175761;23;20066;-66
2021/06/22 00:38:16;;;;;;;3.15;1.83;;;17.80;36.50;;;;;;6175501;23;20438;-65
2021/06/22 00:41:04;;;;;;;2.50;1.90;;;17.70;37.90;;;;;;6177078;23;20117;-67
2021/06/22 00:43:53;;;;;;;2.67;1.90;;;17.80;36.70;;;;;;6174038;23;20615;-65
2021/06/22 00:46:43;;;;;;;3.72;1.85;;;17.70;37.00;;;;;;6173539;23;20029;-65
2021/06/22 00:49:31;;;;;;;2.08;1.80;;;17.70;37.90;;;;;;6176855;23;20434;-66
2021/06/22 00:52:21;;;;;;;3.53;1.70;;;17.70;38.80;;;;;;6178423;23;20024;-67
2021/06/22 00:55:13;;;;;;;5.65;2.00;;;17.80;37.20;;;;;;6150943;23;20027;-65
2021/06/22 00:58:06;;;;;;;3.63;2.47;;;17.70;39.60;;;;;;6174710;23;20110;-65
2021/06/22 01:00:54;;;;;;;6.53;2.28;;;17.80;39.70;;;;;;6177839;23;20451;-65
2021/06/22 01:03:45;;;;;;;3.85;2.10;;;17.60;38.40;;;;;;6171998;23;20366;-65
2021/06/22 01:06:34;;;;;;;3.25;2.58;;;17.60;40.20;;;;;;6176295;23;20362;-65
2021/06/22 01:09:29;;;;;;;4.38;2.03;;;17.50;42.40;;;;;;6176343;23;20108;-65
2021/06/22 01:12:18;;;;;;;1.75;1.65;;;17.50;42.70;;;;;;6177227;23;20171;-66
2021/06/22 01:15:15;;;;;;;3.90;2.53;;;17.40;43.80;;;;;;6174406;23;20021;-65
2021/06/22 01:18:06;;;;;;;3.67;2.10;;;17.40;44.10;;;;;;6174558;23;20095;-66
2021/06/22 01:21:15;;;;;;;2.50;2.30;;;17.50;43.70;;;;;;6176461;23;20036;-66
2021/06/22 01:24:17;;;;;;;4.53;2.00;;;17.40;43.60;;;;;;6170854;23;20056;-67
2021/06/22 01:27:06;;;;;;;6.88;3.03;;;17.30;44.80;;;;;;6175525;23;20103;-67
2021/06/22 01:29:55;;;;;;;4.38;2.50;;;17.30;47.40;;;;;;6176541;23;20044;-65
2021/06/22 01:32:44;;;;;;;6.32;2.58;;;17.30;47.00;;;;;;6176367;23;20021;-66
2021/06/22 01:35:33;;;;;;;3.63;2.53;;;17.30;47.30;;;;;;6175001;23;20056;-66
2021/06/22 01:38:24;;;;;;;3.92;2.85;;;17.40;46.80;;;;;;6174449;23;20075;-66
2021/06/22 01:41:16;;;;;;;4.45;4.03;;;17.50;46.40;;;;;;6175731;23;20021;-66
2021/06/22 01:44:05;;;;;;;6.32;3.80;;;17.60;45.60;;;;;;6173466;23;20092;-66
2021/06/22 01:46:54;;;;;;;5.22;3.15;;;17.50;45.40;;;;;;6175613;23;20497;-66
2021/06/22 01:49:43;;;;;;;4.63;2.90;;;17.50;44.60;;;;;;6178339;23;20031;-66
2021/06/22 01:52:33;;;;;;;2.72;2.50;;;17.50;44.50;;;;;;6175724;23;20021;-66
2021/06/22 01:55:36;;;;;;;7.15;2.83;;;17.50;43.70;;;;;;6173491;23;20028;-66
2021/06/22 01:58:25;;;;;;;3.45;2.70;;;17.40;43.60;;;;;;6176985;23;20103;-65
2021/06/22 02:01:20;;;;;;;5.88;2.50;;;17.50;43.50;;;;;;6178838;23;20052;-65
2021/06/22 02:04:24;;;;;;;4.85;2.80;;;17.40;43.60;;;;;;6170847;23;20118;-66
2021/06/22 02:07:16;;;;;;;6.25;2.70;;;17.30;45.20;;;;;;6173414;23;20032;-66
2021/06/22 02:10:05;;;;;;;5.40;2.55;;;17.30;45.20;;;;;;6176166;23;20025;-65
2021/06/22 02:13:24;;;;;;;6.15;2.85;;;17.30;46.00;;;;;;6174086;23;20083;-66
2021/06/22 02:16:24;;;;;;;4.93;2.75;;;17.30;45.40;;;;;;6175649;23;20091;-66
2021/06/22 02:19:18;;;;;;;5.07;2.97;;;17.30;45.90;;;;;;6177567;23;20017;-66
2021/06/22 02:22:07;;;;;;;4.70;3.40;;;17.30;46.90;;;;;;6178617;23;20024;-65
2021/06/22 02:25:12;;;;;;;4.60;3.47;;;17.20;45.40;;;;;;6172791;23;20033;-66
2021/06/22 02:28:03;;;;;;;7.47;3.83;;;17.20;45.50;;;;;;6176018;23;20031;-66
2021/06/22 02:30:56;;;;;;;5.88;3.30;;;17.40;45.70;;;;;;6177160;23;20020;-66
2021/06/22 02:33:45;;;;;;;5.20;2.90;;;17.40;44.60;;;;;;6173928;23;20492;-65
2021/06/22 02:36:34;;;;;;;4.93;3.55;;;17.30;43.50;;;;;;6177119;23;20024;-65
2021/06/22 02:39:23;;;;;;;3.50;3.20;;;17.30;45.40;;;;;;6177444;23;20029;-65
2021/06/22 02:42:14;;;;;;;3.47;3.17;;;17.20;45.30;;;;;;6179199;23;20024;-65
2021/06/22 02:45:04;;;;;;;3.60;3.25;;;17.20;45.50;;;;;;6173782;23;20452;-66
2021/06/22 02:47:55;;;;;;;4.72;3.20;;;17.30;45.70;;;;;;6175315;23;20033;-66
2021/06/22 02:50:49;;;;;;;3.55;2.70;;;17.40;45.00;;;;;;6178231;23;20056;-65
2021/06/22 02:53:43;;;;;;;3.42;3.10;;;17.60;44.80;;;;;;6172160;23;20375;-65
2021/06/22 02:56:32;;;;;;;6.55;3.35;;;17.50;42.30;;;;;;6174607;23;20103;-66
2021/06/22 02:59:24;;;;;;;5.53;3.28;;;17.50;43.70;;;;;;6179065;23;20029;-65
2021/06/22 03:02:12;;;;;;;6.45;3.10;;;17.50;43.40;;;;;;6177505;23;20092;-66
2021/06/22 03:05:02;;;;;;;3.70;3.15;;;17.40;45.00;;;;;;6172017;23;20036;-65
2021/06/22 03:07:51;;;;;;;4.93;3.60;;;17.20;43.60;;;;;;6176443;23;20036;-66
2021/06/22 03:10:41;;;;;;;5.55;3.60;;;17.40;45.00;;;;;;6176972;23;20025;-66
2021/06/22 03:13:30;;;;;;;4.10;3.70;;;17.30;44.20;;;;;;6174807;23;20100;-66
2021/06/22 03:16:19;;;;;;;4.68;3.83;;;17.20;44.80;;;;;;6177355;23;20033;-65
2021/06/22 03:19:11;;;;;;;4.40;4.00;;;17.30;45.20;;;;;;6157018;23;20021;-66
2021/06/22 03:22:07;;;;;;;;;;;17.30;44.50;;;;;;6177477;23;20028;-66
2021/06/22 03:24:56;;;;;;;7.22;6.05;;;17.40;45.00;;;;;;6172119;23;19927;-65
2021/06/22 03:27:45;;;;;;;7.13;5.40;;;17.30;45.70;;;;;;6176034;23;20021;-65
2021/06/22 03:31:03;;;;;;;7.68;6.60;;;17.50;46.70;;;;;;6109771;23;20025;-66
2021/06/22 03:33:51;;;;;;;7.82;6.03;;;17.50;46.30;;;;;;6152368;23;20032;-65
2021/06/22 03:36:39;;;;;;;9.13;6.43;;;17.70;44.50;;;;;;6177047;23;20056;-64
2021/06/22 03:39:29;;;;;;;8.07;6.70;;;17.70;43.90;;;;;;6178360;23;20148;-65
2021/06/22 03:42:18;;;;;;;6.60;5.80;;;17.70;42.50;;;;;;6179514;23;20505;-65
2021/06/22 03:45:09;;;;;;;7.47;6.47;;;18.10;38.80;;;;;;6172124;23;20025;-65
2021/06/22 03:48:00;;;;;;;9.23;5.63;;;18.90;33.30;;;;;;6175367;23;20021;-65
2021/06/22 03:50:53;;;;;;;5.80;5.30;;;18.30;35.80;;;;;;6177624;23;20379;-66
2021/06/22 03:53:44;;;;;;;11.70;5.50;;;18.00;40.70;;;;;;6173680;23;20068;-65
2021/06/22 03:56:34;;;;;;;6.88;4.90;;;17.80;43.90;;;;;;6175271;23;20031;-66
2021/06/22 03:59:31;;;;;;;7.07;5.15;;;17.80;44.40;;;;;;6179822;23;20025;-65
2021/06/22 04:02:21;;;;;;;6.00;4.70;;;17.80;45.90;;;;;;6176449;23;20017;-65
2021/06/22 04:05:11;;;;;;;6.75;4.68;;;17.70;45.90;;;;;;6175429;23;20029;-65
2021/06/22 04:08:15;;;;;;;6.22;5.00;;;17.70;47.20;;;;;;6176469;23;20024;-65
2021/06/22 04:11:05;;;;;;;5.78;4.50;;;17.70;46.90;;;;;;6179261;23;20072;-65
2021/06/22 04:14:00;;;;;;;5.70;4.93;;;17.60;48.50;;;;;;6173633;23;20471;-66
2021/06/22 04:16:57;;;;;;;7.18;5.40;;;17.60;49.80;;;;;;6174912;23;20025;-65
2021/06/22 04:19:46;;;;;;;8.70;5.25;;;17.60;50.60;;;;;;6178380;23;20025;-65
2021/06/22 04:22:34;;;;;;;9.18;6.28;;;17.30;50.40;;;;;;6177251;23;20551;-65
2021/06/22 04:25:30;;;;;;;8.57;7.18;;;17.40;52.60;;;;;;6176733;23;20500;-66
2021/06/22 04:28:23;;;;;;;11.50;6.40;;;17.50;52.10;;;;;;6178005;23;20028;-66
2021/06/22 04:31:13;;;;;;;8.38;6.57;;;17.50;52.00;;;;;;6178414;23;20025;-66
2021/06/22 04:34:06;;;;;;;13.02;7.22;;;17.60;52.10;;;;;;6172713;23;20025;-65
2021/06/22 04:36:54;;;;;;;15.05;7.57;;;17.50;52.00;;;;;;6176505;23;20021;-66
2021/06/22 04:39:42;;;;;;;8.82;7.25;;;17.40;52.80;;;;;;6178502;23;20024;-66
2021/06/22 04:42:31;;;;;;;10.40;7.18;;;17.40;53.20;;;;;;6178443;23;20091;-66
2021/06/22 04:45:19;;;;;;;9.85;7.05;;;17.50;51.90;;;;;;6173828;23;20411;-65
2021/06/22 04:48:10;;;;;;;10.07;6.82;;;17.60;52.10;;;;;;6176941;23;20017;-66
2021/06/22 04:50:59;;;;;;;10.90;6.65;;;17.50;52.00;;;;;;6177843;23;20049;-66
2021/06/22 04:53:47;;;;;;;10.70;6.57;;;17.40;49.60;;;;;;6173116;23;20079;-64
2021/06/22 04:56:35;;;;;;;10.93;6.93;;;17.60;50.00;;;;;;6176380;23;20359;-66
2021/06/22 04:59:24;;;;;;;12.60;6.47;;;17.80;48.50;;;;;;6176732;23;20035;-64
2021/06/22 05:02:13;;;;;;;8.52;7.00;;;17.80;49.90;;;;;;6178586;23;20552;-64
2021/06/22 05:05:03;;;;;;;9.75;8.10;;;17.80;49.70;;;;;;6174137;23;20100;-65
2021/06/22 05:07:52;;;;;;;17.40;13.23;;;17.90;49.00;;;;;;6174031;23;20024;-66
2021/06/22 05:10:41;;;;;;;17.45;13.45;;;18.00;49.60;;;;;;6179631;23;20459;-65
2021/06/22 05:13:29;;;;;;;18.65;14.48;;;18.00;50.70;;;;;;6177318;23;20021;-66
2021/06/22 05:16:17;;;;;;;19.13;13.75;;;17.90;52.40;;;;;;6174597;23;20021;-64
2021/06/22 05:19:06;;;;;;;19.80;15.15;;;17.90;54.60;;;;;;6179728;23;20076;-65
2021/06/22 05:21:55;;;;;;;18.35;13.75;;;18.00;55.10;;;;;;6178241;23;20100;-65
2021/06/22 05:24:44;;;;;;;23.88;13.40;;;18.00;54.70;;;;;;6174764;23;20517;-66
2021/06/22 05:27:32;;;;;;;18.13;12.75;;;18.10;54.20;;;;;;6176694;23;20139;-66
2021/06/22 05:30:21;;;;;;;21.00;13.25;;;17.90;54.60;;;;;;6179251;23;20052;-66
2021/06/22 05:33:10;;;;;;;16.73;12.20;;;17.90;55.00;;;;;;6175246;23;20107;-66
2021/06/22 05:35:58;;;;;;;21.08;11.95;;;18.00;55.20;;;;;;6175387;23;20106;-65
2021/06/22 05:38:48;;;;;;;22.95;13.55;;;18.00;54.90;;;;;;6177974;23;20025;-65
2021/06/22 05:41:36;;;;;;;19.33;12.63;;;18.10;54.50;;;;;;6179372;23;20048;-65
2021/06/22 05:44:24;;;;;;;15.95;12.48;;;18.00;55.00;;;;;;6174081;23;20033;-65
2021/06/22 05:47:13;;;;;;;17.23;12.75;;;18.00;55.70;;;;;;6178737;23;20383;-66
2021/06/22 05:50:01;;;;;;;13.85;11.85;;;18.10;55.90;;;;;;6180162;23;20039;-64
2021/06/22 05:52:51;;;;;;;14.20;11.55;;;18.10;56.50;;;;;;6176831;23;20020;-66
2021/06/22 05:55:41;;;;;;;13.18;10.75;;;18.10;56.10;;;;;;6176501;23;20028;-63
2021/06/22 05:58:29;;;;;;;14.98;10.10;;;18.20;55.60;;;;;;6180781;23;20532;-65
2021/06/22 06:01:18;;;;;;;15.73;11.10;;;17.90;53.10;;;;;;6178591;23;20458;-66
2021/06/22 06:04:06;;;;;;;18.00;13.25;;;18.10;54.40;;;;;;6175172;23;20017;-65
2021/06/22 06:06:55;;;;;;;16.38;12.57;;;18.00;55.70;;;;;;6177645;23;20031;-66
2021/06/22 06:09:43;;;;;;;22.33;13.68;;;18.10;55.00;;;;;;6171016;23;20025;-65
2021/06/22 06:12:33;;;;;;;16.85;12.90;;;18.10;56.20;;;;;;6180746;23;20458;-66
2021/06/22 06:15:22;;;;;;;24.02;13.63;;;18.20;56.60;;;;;;6176876;23;20029;-65
2021/06/22 06:18:11;;;;;;;19.50;13.50;;;18.20;56.80;;;;;;6176370;23;20091;-65
2021/06/22 06:21:01;;;;;;;17.05;13.95;;;18.30;56.50;;;;;;6178118;23;20083;-65
2021/06/22 06:23:50;;;;;;;22.83;14.38;;;18.30;56.40;;;;;;6175711;23;20021;-65
2021/06/22 06:26:46;;;;;;;13.93;9.73;;;18.30;56.50;;;;;;6178301;23;20405;-65
2021/06/22 06:29:45;;;;;;;15.85;10.63;;;18.20;55.00;;;;;;6176395;23;20122;-64
2021/06/22 06:32:33;;;;;;;17.90;10.57;;;18.30;55.50;;;;;;6179303;23;20021;-66
2021/06/22 06:35:23;;;;;;;17.45;12.60;;;18.40;52.70;;;;;;6174919;23;20524;-65
2021/06/22 06:38:12;;;;;;;18.63;11.95;;;18.30;52.80;;;;;;6175942;23;20366;-66
2021/06/22 06:41:00;;;;;;;19.10;11.77;;;18.30;51.20;;;;;;6179647;23;20087;-66
2021/06/22 06:43:49;;;;;;;18.95;12.23;;;18.60;53.00;;;;;;6176525;23;20025;-65
2021/06/22 06:46:38;;;;;;;13.52;11.88;;;18.70;50.60;;;;;;6180800;23;20100;-66
2021/06/22 06:49:27;;;;;;;14.88;10.93;;;18.80;49.10;;;;;;6177609;23;20025;-66
2021/06/22 06:52:15;;;;;;;11.82;10.57;;;18.70;49.10;;;;;;6179934;23;20025;-65
2021/06/22 06:55:04;;;;;;;15.20;11.55;;;18.80;50.80;;;;;;6177110;23;20881;-65
2021/06/22 06:57:54;;;;;;;17.48;12.40;;;19.00;49.10;;;;;;6176032;23;20103;-65
2021/06/22 07:00:49;;;;;;;17.88;11.50;;;18.80;47.90;;;;;;6178782;23;20021;-66
2021/06/22 07:03:43;;;;;;;15.02;11.57;;;19.10;46.70;;;;;;6176893;23;20071;-65
2021/06/22 07:06:31;;;;;;;17.15;11.05;;;18.90;46.60;;;;;;6178504;23;20056;-66
2021/06/22 07:09:20;;;;;;;20.52;12.55;;;19.20;47.30;;;;;;6177432;23;20021;-66
2021/06/22 07:12:09;;;;;;;19.13;12.48;;;18.80;45.10;;;;;;6180146;23;20458;-66
2021/06/22 07:14:57;;;;;;;16.00;11.90;;;19.00;48.40;;;;;;6176041;23;20459;-65
2021/06/22 07:17:46;;;;;;;13.10;11.27;;;19.40;46.90;;;;;;6176541;23;20056;-65
2021/06/22 07:20:36;;;;;;;15.10;11.48;;;19.30;44.30;;;;;;6179309;23;20065;-65
2021/06/22 07:23:25;;;;;;;13.73;11.60;;;19.40;44.10;;;;;;6176809;23;20147;-65
2021/06/22 07:26:13;;;;;;;14.55;11.40;;;19.20;46.10;;;;;;6178490;23;20029;-65
2021/06/22 07:29:02;;;;;;;13.30;10.52;;;19.40;44.40;;;;;;6177681;23;20182;-65
2021/06/22 07:31:50;;;;;;;15.63;11.13;;;19.30;43.40;;;;;;6180615;23;20478;-64
2021/06/22 07:34:39;;;;;;;19.63;11.02;;;19.10;42.70;;;;;;6174005;23;20021;-65
2021/06/22 07:37:29;;;;;;;13.95;10.60;;;19.30;43.50;;;;;;6167072;23;20111;-65
2021/06/22 07:40:18;;;;;;;15.73;10.70;;;19.20;46.60;;;;;;6179630;23;20092;-65
2021/06/22 07:43:07;;;;;;;15.77;11.73;;;19.30;44.60;;;;;;6177210;23;20340;-65
2021/06/22 07:45:55;;;;;;;14.82;10.98;;;19.30;46.40;;;;;;6176285;23;20029;-64
2021/06/22 07:48:44;;;;;;;15.57;10.15;;;19.80;41.30;;;;;;6176038;23;20052;-65
2021/06/22 07:51:32;;;;;;;12.48;10.43;;;20.50;36.20;;;;;;6176870;23;20387;-66
2021/06/22 07:54:22;;;;;;;13.88;10.80;;;20.10;37.50;;;;;;6175242;23;20168;-66
2021/06/22 07:57:10;;;;;;;12.95;11.10;;;19.70;34.20;;;;;;6177864;23;20021;-65
2021/06/22 08:00:01;;;;;;;12.50;10.55;;;19.80;37.20;;;;;;6176911;23;20029;-66
2021/06/22 08:02:57;;;;;;;12.98;10.80;;;19.80;37.70;;;;;;6175746;23;20029;-66
2021/06/22 08:05:47;;;;;;;11.63;10.43;;;19.90;34.60;;;;;;6177919;23;20396;-65
2021/06/22 08:08:35;;;;;;;13.73;10.82;;;19.50;36.90;;;;;;6176467;23;20031;-66
2021/06/22 08:11:25;;;;;;;13.23;10.95;;;19.80;36.60;;;;;;6178837;23;20031;-66
2021/06/22 08:14:14;;;;;;;13.07;11.00;;;19.90;34.60;;;;;;6173008;23;20656;-65
2021/06/22 08:17:03;;;;;;;14.48;10.20;;;19.70;36.60;;;;;;6176419;23;20040;-64
2021/06/22 08:19:51;;;;;;;13.77;10.45;;;20.00;34.80;;;;;;6179798;23;20505;-65
2021/06/22 08:22:40;;;;;;;12.80;9.60;;;20.10;33.50;;;;;;6180002;23;20851;-66
2021/06/22 08:25:28;;;;;;;12.52;9.23;;;19.70;31.30;;;;;;6176487;23;20052;-66
2021/06/22 08:28:18;;;;;;;11.80;9.35;;;19.90;28.90;;;;;;6175224;23;20417;-66
2021/06/22 08:31:07;;;;;;;9.93;8.68;;;20.20;29.90;;;;;;6178183;23;20373;-66
2021/06/22 08:33:55;;;;;;;11.35;8.20;;;20.50;27.20;;;;;;6171022;23;20021;-64
2021/06/22 08:36:44;;;;;;;12.55;9.55;;;20.60;26.40;;;;;;6175578;23;20110;-65
2021/06/22 08:39:34;;;;;;;10.85;9.75;;;20.40;26.10;;;;;;6176880;23;20108;-65
2021/06/22 08:42:23;;;;;;;13.35;9.75;;;19.70;32.10;;;;;;6177471;23;20056;-65
2021/06/22 08:45:16;;;;;;;13.93;10.55;;;20.10;31.20;;;;;;6175154;23;20017;-66
2021/06/22 08:48:06;;;;;;;11.45;9.15;;;19.80;32.80;;;;;;6176240;23;20079;-65
2021/06/22 08:50:55;;;;;;;10.40;9.38;;;20.00;32.40;;;;;;6176983;23;20482;-65
2021/06/22 08:53:43;;;;;;;11.77;9.50;;;19.70;31.30;;;;;;6173417;23;20025;-65
2021/06/22 08:56:32;;;;;;;13.27;10.32;;;19.70;31.70;;;;;;6174510;23;20024;-66
2021/06/22 08:59:20;;;;;;;12.73;9.85;;;19.90;34.90;;;;;;6176158;23;20028;-65
2021/06/22 09:02:10;;;;;;;14.50;9.95;;;19.70;37.10;;;;;;6176536;23;20052;-65
2021/06/22 09:04:59;;;;;;;11.60;9.85;;;19.80;37.20;;;;;;6172720;23;20024;-65
2021/06/22 09:07:50;;;;;;;11.00;9.90;;;19.70;38.60;;;;;;6175346;23;20171;-65
2021/06/22 09:10:39;;;;;;;15.77;11.98;;;19.80;40.80;;;;;;6179001;23;20021;-64
2021/06/22 09:13:27;;;;;;;17.05;11.85;;;19.50;42.60;;;;;;6175105;23;20118;-65
2021/06/22 09:16:17;;;;;;;13.73;12.32;;;19.80;47.00;;;;;;6177067;23;20032;-66
2021/06/22 09:19:08;;;;;;;14.20;12.80;;;19.90;44.50;;;;;;6177233;23;20028;-65
2021/06/22 09:21:57;;;;;;;14.60;12.35;;;19.90;38.60;;;;;;6178564;23;20059;-65
2021/06/22 09:25:02;;;;;;;16.70;13.15;;;19.80;39.10;;;;;;6174110;23;20021;-65
2021/06/22 09:27:53;;;;;;;13.20;11.57;;;19.80;41.90;;;;;;6175768;23;20025;-65
2021/06/22 09:30:45;;;;;;;14.05;12.55;;;19.80;39.70;;;;;;6176921;23;20029;-65
2021/06/22 09:33:36;;;;;;;13.85;12.18;;;19.80;40.80;;;;;;6171483;23;20028;-65
2021/06/22 09:36:27;;;;;;;14.10;11.90;;;19.60;44.10;;;;;;6174840;23;20033;-66
2021/06/22 09:39:15;;;;;;;14.82;12.35;;;19.40;41.80;;;;;;6176811;23;20028;-64
2021/06/22 09:42:12;;;;;;;14.93;11.25;;;19.60;45.20;;;;;;6177749;23;20056;-65
2021/06/22 09:45:20;;;;;;;12.70;11.40;;;19.60;43.30;;;;;;6174178;23;20615;-65
2021/06/22 09:48:09;;;;;;;13.55;12.15;;;19.70;43.10;;;;;;6171728;23;20438;-64
2021/06/22 09:50:58;;;;;;;17.02;12.50;;;19.70;44.30;;;;;;6179238;23;20021;-65
2021/06/22 09:54:12;;;;;;;13.77;12.35;;;19.60;43.70;;;;;;6172157;23;20682;-66
2021/06/22 09:57:04;;;;;;;13.07;11.83;;;19.60;43.70;;;;;;6175624;23;20428;-65
2021/06/22 09:59:54;;;;;;;15.52;11.40;;;19.90;45.30;;;;;;6177973;23;20036;-65
2021/06/22 10:02:50;;;;;;;14.45;10.77;;;20.30;45.40;;;;;;6178278;23;20439;-65
2021/06/22 10:05:50;;;;;;;12.23;10.38;;;19.80;38.20;;;;;;6174422;23;20282;-66
2021/06/22 10:09:04;;;;;;;10.13;8.80;;;20.10;41.80;;;;;;6174109;23;20104;-66
2021/06/22 10:11:58;;;;;;;11.73;9.52;;;20.30;33.60;;;;;;6167534;23;20420;-65
2021/06/22 10:14:48;;;;;;;12.38;9.98;;;20.50;32.50;;;;;;6173173;23;20084;-67
2021/06/22 10:17:37;;;;;;;11.27;9.77;;;20.70;31.60;;;;;;6173589;23;20025;-66
2021/06/22 10:20:25;;;;;;;12.93;10.60;;;20.50;30.10;;;;;;6176625;23;20176;-65
2021/06/22 10:23:14;;;;;;;13.23;10.20;;;20.80;35.60;;;;;;6175113;23;20096;-66
2021/06/22 10:26:04;;;;;;;16.13;9.73;;;20.70;28.50;;;;;;6175008;23;20501;-67
2021/06/22 10:28:52;;;;;;;11.80;10.43;;;20.70;26.70;;;;;;6175856;23;20191;-66
2021/06/22 10:31:41;;;;;;;10.77;9.68;;;20.60;29.40;;;;;;6178822;23;20052;-66
2021/06/22 10:34:30;;;;;;;11.30;10.07;;;20.80;29.10;;;;;;6174962;23;20395;-65
2021/06/22 10:37:25;;;;;;;14.23;9.88;;;20.60;27.10;;;;;;6177448;23;20032;-65
2021/06/22 10:40:20;;;;;;;11.88;8.50;;;20.70;32.20;;;;;;6178428;23;20524;-64
2021/06/22 10:43:10;;;;;;;8.63;7.35;;;20.70;27.40;;;;;;6175550;23;20020;-64
2021/06/22 10:46:15;;;;;;;7.65;6.85;;;21.00;25.40;;;;;;6178014;23;20125;-64
2021/06/22 10:49:19;;;;;;;8.00;6.93;;;20.50;24.70;;;;;;6174218;23;20361;-65
2021/06/22 10:52:08;;;;;;;9.40;7.38;;;20.10;25.50;;;;;;6177406;23;20107;-66
2021/06/22 10:54:56;;;;;;;12.95;7.07;;;19.90;27.80;;;;;;6172611;23;20144;-65
2021/06/22 10:58:15;;;;;;;9.48;7.72;;;20.10;29.00;;;;;;6175533;23;20109;-65
2021/06/22 11:01:13;;;;;;;9.57;7.88;;;19.90;30.90;;;;;;6178028;23;20383;-66
2021/06/22 11:04:06;;;;;;;13.40;7.97;;;20.20;30.20;;;;;;6173190;23;20092;-65
2021/06/22 11:07:17;;;;;;;10.55;7.88;;;20.40;29.20;;;;;;6175442;23;20048;-66
2021/06/22 11:10:16;;;;;;;9.55;8.48;;;19.90;28.90;;;;;;6177151;23;20025;-65
2021/06/22 11:13:05;;;;;;;11.02;8.77;;;19.70;31.90;;;;;;6175481;23;20556;-65
2021/06/22 11:15:55;;;;;;;11.13;8.68;;;19.80;32.40;;;;;;6172633;23;20068;-66
2021/06/22 11:19:10;;;;;;;11.30;8.55;;;20.10;30.70;;;;;;6175282;23;20335;-66
2021/06/22 11:21:58;;;;;;;12.15;8.88;;;20.20;28.50;;;;;;6176739;23;20394;-66
2021/06/22 11:24:47;;;;;;;17.42;8.65;;;20.20;27.70;;;;;;6173510;23;20572;-65
2021/06/22 11:28:02;;;;;;;10.70;8.55;;;20.40;26.30;;;;;;6174715;23;20081;-66
2021/06/22 11:30:53;;;;;;;12.18;7.60;;;20.40;25.80;;;;;;6179005;23;20025;-65
2021/06/22 11:33:44;;;;;;;10.68;7.15;;;20.50;25.30;;;;;;6173401;23;20021;-66
2021/06/22 11:36:35;;;;;;;9.18;6.35;;;20.70;23.10;;;;;;6175093;23;20031;-66
2021/06/22 11:39:24;;;;;;;8.75;5.63;;;20.20;22.00;;;;;;6175794;23;20112;-65
2021/06/22 11:42:20;;;;;;;7.32;6.20;;;20.50;21.50;;;;;;6177502;23;20025;-65
2021/06/22 11:45:20;;;;;;;11.52;6.50;;;20.40;20.60;;;;;;6174840;23;20036;-65
2021/06/22 11:48:09;;;;;;;8.20;6.22;;;19.90;21.50;;;;;;6175110;23;20164;-65
2021/06/22 11:50:59;;;;;;;6.95;5.80;;;19.70;21.70;;;;;;6176786;23;20095;-65
2021/06/22 11:53:49;;;;;;;7.60;5.68;;;19.70;21.50;;;;;;6173194;23;20021;-65
2021/06/22 11:56:38;;;;;;;8.93;5.70;;;19.80;24.80;;;;;;6174812;23;20049;-65
2021/06/22 11:59:27;;;;;;;7.68;6.10;;;19.80;25.20;;;;;;6177420;23;20099;-65
2021/06/22 12:02:16;;;;;;;9.50;5.82;;;19.70;25.00;;;;;;6176701;23;20053;-66
2021/06/22 12:05:11;;;;;;;9.10;5.45;;;19.50;25.10;;;;;;6175396;23;20029;-66
2021/06/22 12:08:03;;;;;;;6.95;5.30;;;19.40;25.00;;;;;;6174306;23;20462;-65
2021/06/22 12:10:54;;;;;;;6.50;4.63;;;19.60;24.40;;;;;;6177051;23;20138;-65
2021/06/22 12:13:46;;;;;;;11.13;4.82;;;19.70;21.70;;;;;;6176217;23;20123;-65
2021/06/22 12:16:34;;;;;;;6.20;4.88;;;19.90;21.80;;;;;;6171590;23;20130;-66
2021/06/22 12:19:23;;;;;;;5.43;4.05;;;19.40;23.10;;;;;;6177068;23;20028;-66
2021/06/22 12:22:13;;;;;;;4.68;4.07;;;19.20;22.20;;;;;;6176360;23;20021;-66
2021/06/22 12:25:07;;;;;;;6.47;4.47;;;19.40;21.80;;;;;;6173164;23;20099;-65
2021/06/22 12:27:57;;;;;;;9.65;5.40;;;19.20;23.20;;;;;;6175662;23;20406;-65
2021/06/22 12:30:47;;;;;;;7.47;5.50;;;19.20;24.90;;;;;;6176975;23;20049;-64
2021/06/22 12:33:40;;;;;;;5.65;4.90;;;19.10;27.80;;;;;;6175720;23;20024;-65
2021/06/22 12:36:34;;;;;;;7.72;5.97;;;19.20;27.50;;;;;;6175059;23;20336;-66
2021/06/22 12:39:23;;;;;;;6.83;5.20;;;19.10;27.90;;;;;;6177237;23;20028;-65
2021/06/22 12:42:19;;;;;;;6.25;5.00;;;19.20;27.00;;;;;;6176837;23;20435;-65
2021/06/22 12:45:13;;;;;;;10.02;5.53;;;18.60;29.10;;;;;;6174636;23;20030;-64
2021/06/22 12:48:02;;;;;;;6.40;5.23;;;18.60;33.40;;;;;;6174659;23;20021;-66
2021/06/22 12:50:50;;;;;;;7.38;5.60;;;19.00;31.10;;;;;;6176309;23;20040;-65
2021/06/22 12:53:39;;;;;;;8.02;5.50;;;18.80;31.70;;;;;;6174025;23;20102;-66
2021/06/22 12:56:30;;;;;;;8.98;5.05;;;18.70;32.70;;;;;;6174000;23;20031;-65
2021/06/22 12:59:22;;;;;;;6.78;5.35;;;18.80;34.40;;;;;;6171652;23;20126;-64
2021/06/22 13:02:11;;;;;;;12.15;6.63;;;18.60;36.10;;;;;;6176104;23;20052;-65
2021/06/22 13:05:00;;;;;;;12.90;8.45;;;18.50;40.70;;;;;;6173689;23;20050;-64
2021/06/22 13:07:49;;;;;;;16.17;10.02;;;18.00;52.50;;;;;;6173256;23;20434;-65
2021/06/22 13:10:49;;;;;;;14.35;9.85;;;17.70;55.50;;;;;;6175835;23;20536;-66
2021/06/22 13:13:39;;;;;;;14.77;10.93;;;17.70;57.70;;;;;;6175086;23;20103;-65
2021/06/22 13:16:29;;;;;;;11.90;10.15;;;17.70;58.70;;;;;;6174569;23;20145;-65
2021/06/22 13:19:18;;;;;;;11.65;9.48;;;17.90;57.60;;;;;;6176107;23;20092;-65
2021/06/22 13:22:06;;;;;;;10.15;8.68;;;18.20;57.20;;;;;;6176698;23;20052;-66
2021/06/22 13:24:57;;;;;;;13.10;9.85;;;18.30;54.60;;;;;;6173202;23;20122;-67
2021/06/22 13:27:52;;;;;;;13.27;10.35;;;18.70;55.40;;;;;;6173808;23;20021;-66
2021/06/22 13:30:49;;;;;;;11.48;8.95;;;19.00;57.20;;;;;;6175258;23;20433;-67
2021/06/22 13:33:39;;;;;;;10.00;7.95;;;19.00;49.30;;;;;;6173431;23;20103;-67
2021/06/22 13:36:27;;;;;;;7.78;6.18;;;18.80;50.40;;;;;;6172911;23;20341;-66
2021/06/22 13:39:16;;;;;;;7.10;6.10;;;18.90;49.20;;;;;;6175070;23;20030;-68
2021/06/22 13:42:13;;;;;;;9.48;6.22;;;19.00;44.50;;;;;;6175090;23;20087;-67
2021/06/22 13:45:10;;;;;;;5.63;4.97;;;18.90;44.90;;;;;;6171142;23;20080;-67
2021/06/22 13:47:59;;;;;;;5.03;4.53;;;18.60;39.10;;;;;;6174495;23;20111;-67
2021/06/22 13:50:50;;;;;;;8.13;3.50;;;19.10;43.10;;;;;;6172230;23;20394;-68
2021/06/22 13:53:42;;;;;;;4.18;3.78;;;19.10;29.00;;;;;;6173085;23;20048;-66
2021/06/22 13:56:31;;;;;;;6.35;4.22;;;19.60;32.20;;;;;;6174388;23;20044;-67
2021/06/22 13:59:19;;;;;;;5.03;3.97;;;19.50;30.80;;;;;;6175561;23;20112;-67
2021/06/22 14:02:27;;;;;;;4.55;3.80;;;19.80;28.70;;;;;;6175893;23;20031;-67
2021/06/22 14:05:16;;;;;;;3.72;3.20;;;19.70;25.40;;;;;;6173009;23;20122;-67
2021/06/22 14:08:07;;;;;;;4.55;3.30;;;19.80;25.30;;;;;;6174632;23;20021;-67
2021/06/22 14:10:57;;;;;;;5.38;3.15;;;19.90;25.10;;;;;;6178871;23;20060;-67
2021/06/22 14:13:48;;;;;;;3.70;2.83;;;20.10;21.60;;;;;;6174861;23;20024;-67
2021/06/22 14:16:36;;;;;;;5.30;3.20;;;19.90;12.20;;;;;;6175069;23;20092;-67
2021/06/22 14:19:26;;;;;;;3.15;2.90;;;20.40;20.20;;;;;;6177915;23;20063;-67
2021/06/22 14:22:14;;;;;;;3.17;2.85;;;20.30;17.40;;;;;;6177995;23;20025;-68
2021/06/22 14:25:06;;;;;;;3.20;2.72;;;20.30;17.40;;;;;;6173733;23;20589;-67
2021/06/22 14:27:54;;;;;;;3.33;2.60;;;20.50;18.60;;;;;;6176203;23;20493;-67
2021/06/22 14:30:42;;;;;;;3.10;2.80;;;20.50;12.90;;;;;;6178255;23;20529;-66
2021/06/22 14:33:31;;;;;;;2.80;2.60;;;20.60;12.90;;;;;;6176683;23;20025;-66
2021/06/22 14:36:19;;;;;;;4.75;2.80;;;20.60;11.30;;;;;;6175328;23;20099;-65
2021/06/22 14:39:08;;;;;;;3.10;2.03;;;20.80;14.40;;;;;;6177011;23;20508;-66
2021/06/22 14:41:57;;;;;;;2.78;1.70;;;21.00;6.20;;;;;;6178004;23;20025;-67